Genco Leader — VRYR8 — position and weather

sailwx.info

Track history (hours):
 
Tides and Currents Weather Stations Pressure Air Temp Water Temp Dewpoint Dewpoint Depression Visibility Wind Speed Wind Dir Waves Ship Positions

Genco Leader

Last reported at 2015-Mar-25 02:27 UTC. Time now 2015-Apr-01 10:43 UTC.
Position N 01°59' E 102°13'.

Length 225 m; draft 14 m.

Type: Cargo ship. MMSI: 477132000.

Date/timePositionNaut miles runAvg speedWind from/ knotsBaromVisibWave heightAir tempDewpointWater temp
2015-Mar-25 02:27N 01°59' E 102°13'8 9.2
2015-Mar-25 01:34N 01°55' E 102°20'1110.6
2015-Mar-25 00:31N 01°50' E 102°30'1111.4
2015-Mar-24 23:32N 01°46' E 102°40'7510.2
2015-Mar-24 16:10N 01°10' E 103°47'6 9.3
2015-Mar-24 15:32N 01°12' E 103°52'9 9.4
2015-Mar-24 14:33N 01°16' E 104°01'4 2.9
2015-Mar-24 13:05N 01°18' E 104°04'0 0.1
2015-Mar-24 11:05N 01°18' E 104°04'0 0.1
2015-Mar-24 10:11N 01°18' E 104°04'0 0.0
2015-Mar-24 09:23N 01°18' E 104°04'0 0.0
2015-Mar-24 07:05N 01°18' E 104°04'0 0.0
2015-Mar-24 03:12N 01°18' E 104°04'3 5.0
2015-Mar-24 02:32N 01°17' E 104°07'  
Track history (hours):
 
Tides and Currents Weather Stations Pressure Air Temp Water Temp Dewpoint Dewpoint Depression Visibility Wind Speed Wind Dir Waves Ship Positions

Genco Leader

Last reported at 2015-Mar-25 02:27 UTC. Time now 2015-Apr-01 10:43 UTC.
Position N 01°59' E 102°13'.

Length 225 m; draft 14 m.

Type: Cargo ship. MMSI: 477132000.

Date/timePositionNaut miles runAvg speedWind from/ knotsBaromVisibWave heightAir tempDewpointWater temp
2015-Mar-25 02:27N 01°59' E 102°13'8 9.2
2015-Mar-25 01:34N 01°55' E 102°20'1110.6
2015-Mar-25 00:31N 01°50' E 102°30'1111.4
2015-Mar-24 23:32N 01°46' E 102°40'7510.2
2015-Mar-24 16:10N 01°10' E 103°47'6 9.3
2015-Mar-24 15:32N 01°12' E 103°52'9 9.4
2015-Mar-24 14:33N 01°16' E 104°01'4 2.9
2015-Mar-24 13:05N 01°18' E 104°04'0 0.1
2015-Mar-24 11:05N 01°18' E 104°04'0 0.1
2015-Mar-24 10:11N 01°18' E 104°04'0 0.0
2015-Mar-24 09:23N 01°18' E 104°04'0 0.0
2015-Mar-24 07:05N 01°18' E 104°04'0 0.0
2015-Mar-24 03:12N 01°18' E 104°04'3 5.0
2015-Mar-24 02:32N 01°17' E 104°07'  

Dump ship's entire track history